Terminal Aerodrome Forecast
Issued by NWS

Home | Current Version | Previous Version | Text Only | Print | Product List | Glossary On
Versions: 1 2 3 4 5 6 7 8 9 10 11 12 13 14 15 16 17 18
000
FTUS43 KDLH 181137
TAFBRD
TAF
KBRD 181137Z 1812/1912 12006KT 1SM -SN OVC018
     FM181400 12011KT 4SM -SN OVC018
     FM182000 05008KT P6SM VCSH BKN016
     FM190200 36011G17KT P6SM BKN040=

USA.gov is the U.S. government's official web portal to all federal, state and local government web resources and services.